MST,Max TemperatureF,Mean TemperatureF,Min TemperatureF,Max Dew PointF,MeanDew PointF,Min DewpointF,Max Humidity, Mean Humidity, Min Humidity, Max Sea Level PressureIn, Mean Sea Level PressureIn, Min Sea Level PressureIn, Max VisibilityMiles, Mean VisibilityMiles, Min VisibilityMiles, Max Wind SpeedMPH, Mean Wind SpeedMPH, Max Gust SpeedMPH,PrecipitationIn, CloudCover, Events, WindDirDegrees
2012-12-1,58,50,42,23,18,7,41,29,17,30.24,30.16,30.07,10,10,10,25,14,33,0.00,0,,228
2012-12-2,53,46,39,22,18,14,47,33,21,30.23,30.12,29.99,10,10,10,24,11,33,0.00,0,,197
2012-12-3,55,46,36,28,22,12,49,37,24,30.32,30.14,29.98,10,10,10,26,14,37,0.00,3,,235
2012-12-4,54,39,24,14,8,-2,53,29,11,30.48,30.40,30.33,10,10,10,21,8,38,0.00,0,,267
2012-12-5,60,46,32,21,15,9,51,29,16,30.40,30.22,30.09,10,10,10,24,9,34,0.00,0,,243
2012-12-6,49,40,30,30,26,23,83,55,40,30.10,30.05,30.00,10,10,10,20,10,25,0.00,4,,162
2012-12-7,48,40,31,26,18,14,79,39,27,29.99,29.96,29.92,10,10,3,28,14,37,0.00,0,,236
2012-12-8,46,37,28,26,19,12,78,50,27,29.97,29.87,29.79,10,10,10,30,12,39,0.00,4,,235
2012-12-9,34,16,-1,23,11,-5,92,80,56,30.17,30.02,29.82,10,6,1,20,10,32,0.00,7,,101
2012-12-10,30,15,0,13,4,-5,84,54,38,30.09,30.01,29.93,10,10,5,21,8,30,0.00,2,,287
2012-12-11,32,19,6,10,6,2,83,53,36,30.05,30.01,29.97,10,10,10,20,8,30,0.00,0,,252
2012-12-12,41,30,18,13,10,6,67,40,28,30.11,30.04,29.98,10,10,10,18,9,29,0.00,0,,230
2012-12-13,45,36,27,12,9,7,50,35,21,30.17,30.11,30.03,10,10,10,17,8,23,0.00,0,,241
2012-12-14,36,30,24,29,19,10,90,65,50,30.04,29.79,29.62,10,9,2,24,10,37,0.00,4,,302
2012-12-15,38,32,25,20,18,16,76,59,41,29.90,29.84,29.78,10,10,10,24,14,33,0.00,3,,208
2012-12-16,34,24,15,17,11,8,82,53,36,29.96,29.84,29.78,10,10,4,26,13,40,0.00,2,,250
2012-12-17,38,32,25,21,14,8,53,48,41,29.93,29.88,29.82,10,10,10,29,17,43,0.00,5,,248
2012-12-18,34,31,28,21,18,16,68,56,48,29.89,29.79,29.64,10,10,10,21,14,30,0.00,5,,200
2012-12-19,33,19,5,28,12,-10,92,69,44,30.23,29.79,29.51,10,8,0,17,7,26,0.00,5,,293
2012-12-20,32,16,1,2,-5,-11,58,37,23,30.43,30.36,30.24,10,10,5,20,10,29,0.00,0,,286
2012-12-21,43,26,10,7,2,-1,59,41,16,30.43,30.35,30.25,10,10,10,18,11,23,0.00,0,,317
2012-12-22,46,30,13,10,0,-7,57,37,11,30.27,30.19,30.10,10,10,7,15,8,21,0.00,0,,316
2012-12-23,40,32,25,18,8,-6,50,36,21,30.16,30.10,30.04,10,10,7,18,7,29,0.00,0,,227
2012-12-24,37,29,21,18,14,11,79,51,36,30.02,29.82,29.70,10,10,10,22,9,36,0.00,3,,167
2012-12-25,30,19,8,17,13,6,93,78,47,30.11,30.01,29.81,10,7,2,10,5,16,0.00,3,,131
2012-12-26,33,21,9,14,9,3,87,57,37,30.01,29.81,29.66,10,10,4,23,9,34,0.00,2,,252
2012-12-27,33,26,18,14,9,5,84,49,31,29.85,29.71,29.64,10,10,5,21,12,29,0.00,4,,229
2012-12-28,28,17,6,14,2,-3,89,56,28,30.20,30.00,29.84,10,10,7,20,5,29,0.00,0,,272
2012-12-29,30,17,4,-1,-6,-14,67,37,14,30.28,30.18,30.06,10,10,10,21,10,36,0.00,0,,310
2012-12-30,37,24,11,8,2,-5,52,35,28,30.09,29.99,29.92,10,10,10,18,10,23,0.00,5,,5
2012-12-31,25,18,10,18,14,6,92,82,59,30.02,29.93,29.85,10,7,1,9,3,16,0.00,6,,183